sensor_id;sensor_type;location;lat;lon;timestamp;P1;durP1;ratioP1;P2;durP2;ratioP2
6987;SDS011;3534;49.960;8.018;2023-03-21T00:00:56;12.00;;;4.77;;
6987;SDS011;3534;49.960;8.018;2023-03-21T00:03:25;15.40;;;5.10;;
6987;SDS011;3534;49.960;8.018;2023-03-21T00:05:52;9.80;;;4.90;;
6987;SDS011;3534;49.960;8.018;2023-03-21T00:08:19;9.63;;;5.10;;
6987;SDS011;3534;49.960;8.018;2023-03-21T00:10:47;10.90;;;4.50;;
6987;SDS011;3534;49.960;8.018;2023-03-21T00:13:20;7.03;;;4.07;;
6987;SDS011;3534;49.960;8.018;2023-03-21T00:15:46;7.00;;;3.83;;
6987;SDS011;3534;49.960;8.018;2023-03-21T00:18:18;9.07;;;2.80;;
6987;SDS011;3534;49.960;8.018;2023-03-21T00:20:55;9.53;;;3.40;;
6987;SDS011;3534;49.960;8.018;2023-03-21T00:23:23;9.83;;;3.80;;
6987;SDS011;3534;49.960;8.018;2023-03-21T00:25:50;7.30;;;3.50;;
6987;SDS011;3534;49.960;8.018;2023-03-21T00:28:17;7.33;;;4.07;;
6987;SDS011;3534;49.960;8.018;2023-03-21T00:30:44;5.50;;;3.80;;
6987;SDS011;3534;49.960;8.018;2023-03-21T00:33:11;13.17;;;3.90;;
6987;SDS011;3534;49.960;8.018;2023-03-21T00:35:38;7.03;;;3.67;;
6987;SDS011;3534;49.960;8.018;2023-03-21T00:38:07;9.47;;;4.80;;
6987;SDS011;3534;49.960;8.018;2023-03-21T00:40:34;6.70;;;3.50;;
6987;SDS011;3534;49.960;8.018;2023-03-21T00:43:01;6.60;;;2.97;;
6987;SDS011;3534;49.960;8.018;2023-03-21T00:45:27;7.77;;;3.70;;
6987;SDS011;3534;49.960;8.018;2023-03-21T00:47:54;8.53;;;4.07;;
6987;SDS011;3534;49.960;8.018;2023-03-21T00:50:21;4.90;;;3.47;;
6987;SDS011;3534;49.960;8.018;2023-03-21T00:52:48;7.30;;;3.80;;
6987;SDS011;3534;49.960;8.018;2023-03-21T00:55:17;5.27;;;3.13;;
6987;SDS011;3534;49.960;8.018;2023-03-21T00:57:45;11.93;;;3.70;;
6987;SDS011;3534;49.960;8.018;2023-03-21T01:00:12;9.33;;;3.30;;
6987;SDS011;3534;49.960;8.018;2023-03-21T01:02:42;6.30;;;3.43;;
6987;SDS011;3534;49.960;8.018;2023-03-21T01:05:20;7.23;;;3.50;;
6987;SDS011;3534;49.960;8.018;2023-03-21T01:08:07;4.90;;;3.37;;
6987;SDS011;3534;49.960;8.018;2023-03-21T01:10:38;11.17;;;3.73;;
6987;SDS011;3534;49.960;8.018;2023-03-21T01:13:05;4.93;;;3.03;;
6987;SDS011;3534;49.960;8.018;2023-03-21T01:15:32;11.20;;;4.33;;
6987;SDS011;3534;49.960;8.018;2023-03-21T01:17:59;11.60;;;3.50;;
6987;SDS011;3534;49.960;8.018;2023-03-21T01:20:26;7.40;;;3.27;;
6987;SDS011;3534;49.960;8.018;2023-03-21T01:22:53;6.63;;;3.60;;
6987;SDS011;3534;49.960;8.018;2023-03-21T01:25:20;9.20;;;3.07;;
6987;SDS011;3534;49.960;8.018;2023-03-21T01:27:48;6.70;;;3.20;;
6987;SDS011;3534;49.960;8.018;2023-03-21T01:30:15;11.40;;;4.03;;
6987;SDS011;3534;49.960;8.018;2023-03-21T01:32:42;6.13;;;3.93;;
6987;SDS011;3534;49.960;8.018;2023-03-21T01:35:09;6.30;;;4.03;;
6987;SDS011;3534;49.960;8.018;2023-03-21T01:37:35;4.13;;;3.33;;
6987;SDS011;3534;49.960;8.018;2023-03-21T01:40:03;7.00;;;3.73;;
6987;SDS011;3534;49.960;8.018;2023-03-21T01:42:31;8.70;;;3.33;;
6987;SDS011;3534;49.960;8.018;2023-03-21T01:45:00;8.17;;;3.80;;
6987;SDS011;3534;49.960;8.018;2023-03-21T01:47:30;5.90;;;3.90;;
6987;SDS011;3534;49.960;8.018;2023-03-21T01:49:57;72.70;;;17.80;;
6987;SDS011;3534;49.960;8.018;2023-03-21T01:52:29;30.93;;;10.37;;
6987;SDS011;3534;49.960;8.018;2023-03-21T01:55:00;24.20;;;7.13;;
6987;SDS011;3534;49.960;8.018;2023-03-21T01:57:29;10.97;;;5.13;;
6987;SDS011;3534;49.960;8.018;2023-03-21T02:00:00;12.83;;;5.80;;
6987;SDS011;3534;49.960;8.018;2023-03-21T02:02:36;18.53;;;6.03;;
6987;SDS011;3534;49.960;8.018;2023-03-21T02:05:14;14.47;;;5.67;;
6987;SDS011;3534;49.960;8.018;2023-03-21T02:07:43;13.93;;;5.33;;
6987;SDS011;3534;49.960;8.018;2023-03-21T02:10:11;14.63;;;5.50;;
6987;SDS011;3534;49.960;8.018;2023-03-21T02:12:39;8.03;;;4.20;;
6987;SDS011;3534;49.960;8.018;2023-03-21T02:15:08;10.60;;;4.37;;
6987;SDS011;3534;49.960;8.018;2023-03-21T02:17:37;5.13;;;3.30;;
6987;SDS011;3534;49.960;8.018;2023-03-21T02:20:13;6.70;;;2.83;;
6987;SDS011;3534;49.960;8.018;2023-03-21T02:23:15;4.90;;;3.03;;
6987;SDS011;3534;49.960;8.018;2023-03-21T02:26:07;6.97;;;3.50;;
6987;SDS011;3534;49.960;8.018;2023-03-21T02:28:57;7.63;;;3.77;;
6987;SDS011;3534;49.960;8.018;2023-03-21T02:31:33;8.10;;;3.67;;
6987;SDS011;3534;49.960;8.018;2023-03-21T02:34:24;9.40;;;3.43;;
6987;SDS011;3534;49.960;8.018;2023-03-21T02:37:14;7.07;;;3.30;;
6987;SDS011;3534;49.960;8.018;2023-03-21T02:42:36;6.23;;;3.20;;
6987;SDS011;3534;49.960;8.018;2023-03-21T02:45:13;6.43;;;3.23;;
6987;SDS011;3534;49.960;8.018;2023-03-21T02:47:43;7.13;;;3.20;;
6987;SDS011;3534;49.960;8.018;2023-03-21T02:50:17;5.80;;;3.30;;
6987;SDS011;3534;49.960;8.018;2023-03-21T02:52:49;15.93;;;4.03;;
6987;SDS011;3534;49.960;8.018;2023-03-21T02:55:19;16.67;;;3.23;;
6987;SDS011;3534;49.960;8.018;2023-03-21T02:57:49;4.77;;;3.57;;
6987;SDS011;3534;49.960;8.018;2023-03-21T03:00:19;7.20;;;3.20;;
6987;SDS011;3534;49.960;8.018;2023-03-21T03:02:47;5.87;;;3.20;;
6987;SDS011;3534;49.960;8.018;2023-03-21T03:05:15;5.40;;;3.37;;
6987;SDS011;3534;49.960;8.018;2023-03-21T03:07:47;5.17;;;2.90;;
6987;SDS011;3534;49.960;8.018;2023-03-21T03:10:31;5.83;;;3.27;;
6987;SDS011;3534;49.960;8.018;2023-03-21T03:13:11;5.63;;;3.17;;
6987;SDS011;3534;49.960;8.018;2023-03-21T03:15:48;6.80;;;3.10;;
6987;SDS011;3534;49.960;8.018;2023-03-21T03:18:23;6.53;;;3.53;;
6987;SDS011;3534;49.960;8.018;2023-03-21T03:20:56;15.13;;;3.23;;
6987;SDS011;3534;49.960;8.018;2023-03-21T03:23:29;5.03;;;2.90;;
6987;SDS011;3534;49.960;8.018;2023-03-21T03:26:07;11.67;;;3.90;;
6987;SDS011;3534;49.960;8.018;2023-03-21T03:28:36;5.07;;;2.53;;
6987;SDS011;3534;49.960;8.018;2023-03-21T03:31:06;6.90;;;3.90;;
6987;SDS011;3534;49.960;8.018;2023-03-21T03:33:39;6.37;;;3.20;;
6987;SDS011;3534;49.960;8.018;2023-03-21T03:36:09;8.47;;;3.77;;
6987;SDS011;3534;49.960;8.018;2023-03-21T03:38:39;6.20;;;4.47;;
6987;SDS011;3534;49.960;8.018;2023-03-21T03:41:08;9.10;;;3.70;;
6987;SDS011;3534;49.960;8.018;2023-03-21T03:43:40;6.97;;;3.57;;
6987;SDS011;3534;49.960;8.018;2023-03-21T03:46:13;4.30;;;3.37;;
6987;SDS011;3534;49.960;8.018;2023-03-21T03:48:45;5.70;;;3.23;;
6987;SDS011;3534;49.960;8.018;2023-03-21T03:51:18;6.07;;;3.77;;
6987;SDS011;3534;49.960;8.018;2023-03-21T03:53:51;7.50;;;3.30;;
6987;SDS011;3534;49.960;8.018;2023-03-21T03:56:20;7.73;;;3.93;;
6987;SDS011;3534;49.960;8.018;2023-03-21T03:58:49;8.60;;;3.50;;
6987;SDS011;3534;49.960;8.018;2023-03-21T04:01:16;8.60;;;3.60;;
6987;SDS011;3534;49.960;8.018;2023-03-21T04:03:43;7.80;;;3.30;;
6987;SDS011;3534;49.960;8.018;2023-03-21T04:06:13;8.37;;;3.37;;
6987;SDS011;3534;49.960;8.018;2023-03-21T04:08:40;13.77;;;3.70;;
6987;SDS011;3534;49.960;8.018;2023-03-21T04:11:08;6.83;;;3.60;;
6987;SDS011;3534;49.960;8.018;2023-03-21T04:13:35;5.70;;;3.60;;
6987;SDS011;3534;49.960;8.018;2023-03-21T04:16:02;8.63;;;4.10;;
6987;SDS011;3534;49.960;8.018;2023-03-21T04:18:29;5.23;;;3.40;;
6987;SDS011;3534;49.960;8.018;2023-03-21T04:20:56;7.90;;;3.63;;
6987;SDS011;3534;49.960;8.018;2023-03-21T04:23:23;4.87;;;3.30;;
6987;SDS011;3534;49.960;8.018;2023-03-21T04:25:50;9.40;;;5.30;;
6987;SDS011;3534;49.960;8.018;2023-03-21T04:28:19;6.07;;;3.80;;
6987;SDS011;3534;49.960;8.018;2023-03-21T04:30:46;7.90;;;4.20;;
6987;SDS011;3534;49.960;8.018;2023-03-21T04:33:14;10.97;;;3.87;;
6987;SDS011;3534;49.960;8.018;2023-03-21T04:35:41;7.90;;;4.17;;
6987;SDS011;3534;49.960;8.018;2023-03-21T04:38:10;10.37;;;3.63;;
6987;SDS011;3534;49.960;8.018;2023-03-21T04:40:36;9.03;;;4.23;;
6987;SDS011;3534;49.960;8.018;2023-03-21T04:43:03;7.33;;;4.27;;
6987;SDS011;3534;49.960;8.018;2023-03-21T04:45:31;11.00;;;4.33;;
6987;SDS011;3534;49.960;8.018;2023-03-21T04:47:58;6.27;;;3.57;;
6987;SDS011;3534;49.960;8.018;2023-03-21T04:50:24;9.73;;;3.93;;
6987;SDS011;3534;49.960;8.018;2023-03-21T04:52:51;6.80;;;3.57;;
6987;SDS011;3534;49.960;8.018;2023-03-21T04:55:17;10.30;;;4.40;;
6987;SDS011;3534;49.960;8.018;2023-03-21T04:57:45;5.17;;;3.70;;
6987;SDS011;3534;49.960;8.018;2023-03-21T05:00:13;7.30;;;3.80;;
6987;SDS011;3534;49.960;8.018;2023-03-21T05:02:42;6.97;;;4.23;;
6987;SDS011;3534;49.960;8.018;2023-03-21T05:05:08;5.90;;;4.03;;
6987;SDS011;3534;49.960;8.018;2023-03-21T05:07:36;6.27;;;4.60;;
6987;SDS011;3534;49.960;8.018;2023-03-21T05:10:03;6.40;;;3.70;;
6987;SDS011;3534;49.960;8.018;2023-03-21T05:12:31;6.50;;;3.13;;
6987;SDS011;3534;49.960;8.018;2023-03-21T05:14:58;9.27;;;3.50;;
6987;SDS011;3534;49.960;8.018;2023-03-21T05:17:25;6.80;;;4.10;;
6987;SDS011;3534;49.960;8.018;2023-03-21T05:19:53;9.43;;;3.83;;
6987;SDS011;3534;49.960;8.018;2023-03-21T05:22:21;5.87;;;3.30;;
6987;SDS011;3534;49.960;8.018;2023-03-21T05:24:50;5.10;;;3.40;;
6987;SDS011;3534;49.960;8.018;2023-03-21T05:27:19;9.60;;;3.80;;
6987;SDS011;3534;49.960;8.018;2023-03-21T05:30:01;9.63;;;3.57;;
6987;SDS011;3534;49.960;8.018;2023-03-21T05:32:29;8.70;;;3.97;;
6987;SDS011;3534;49.960;8.018;2023-03-21T05:34:57;8.23;;;4.00;;
6987;SDS011;3534;49.960;8.018;2023-03-21T05:37:24;12.53;;;4.47;;
6987;SDS011;3534;49.960;8.018;2023-03-21T05:39:51;8.40;;;4.00;;
6987;SDS011;3534;49.960;8.018;2023-03-21T05:42:18;8.60;;;4.00;;
6987;SDS011;3534;49.960;8.018;2023-03-21T05:44:45;5.43;;;3.30;;
6987;SDS011;3534;49.960;8.018;2023-03-21T05:47:12;7.77;;;5.30;;
6987;SDS011;3534;49.960;8.018;2023-03-21T05:49:41;7.07;;;3.77;;
6987;SDS011;3534;49.960;8.018;2023-03-21T05:52:10;6.13;;;3.53;;
6987;SDS011;3534;49.960;8.018;2023-03-21T05:54:36;16.40;;;4.33;;
6987;SDS011;3534;49.960;8.018;2023-03-21T05:57:03;7.30;;;3.50;;
6987;SDS011;3534;49.960;8.018;2023-03-21T05:59:30;7.57;;;4.27;;
6987;SDS011;3534;49.960;8.018;2023-03-21T06:01:59;12.40;;;4.87;;
6987;SDS011;3534;49.960;8.018;2023-03-21T06:04:26;9.43;;;5.33;;
6987;SDS011;3534;49.960;8.018;2023-03-21T06:06:53;9.43;;;4.43;;
6987;SDS011;3534;49.960;8.018;2023-03-21T06:09:22;12.90;;;4.53;;
6987;SDS011;3534;49.960;8.018;2023-03-21T06:11:49;10.73;;;4.97;;
6987;SDS011;3534;49.960;8.018;2023-03-21T06:14:18;10.73;;;4.90;;
6987;SDS011;3534;49.960;8.018;2023-03-21T06:16:46;8.20;;;4.13;;
6987;SDS011;3534;49.960;8.018;2023-03-21T06:19:13;5.57;;;3.83;;
6987;SDS011;3534;49.960;8.018;2023-03-21T06:21:39;7.40;;;3.77;;
6987;SDS011;3534;49.960;8.018;2023-03-21T06:24:06;8.30;;;5.00;;
6987;SDS011;3534;49.960;8.018;2023-03-21T06:26:35;17.73;;;4.77;;
6987;SDS011;3534;49.960;8.018;2023-03-21T06:29:02;7.67;;;4.10;;
6987;SDS011;3534;49.960;8.018;2023-03-21T06:31:28;10.80;;;3.83;;
6987;SDS011;3534;49.960;8.018;2023-03-21T06:33:55;12.93;;;4.77;;
6987;SDS011;3534;49.960;8.018;2023-03-21T06:36:22;11.17;;;4.03;;
6987;SDS011;3534;49.960;8.018;2023-03-21T06:38:49;8.70;;;3.60;;
6987;SDS011;3534;49.960;8.018;2023-03-21T06:41:16;9.53;;;4.33;;
6987;SDS011;3534;49.960;8.018;2023-03-21T06:43:44;9.33;;;4.27;;
6987;SDS011;3534;49.960;8.018;2023-03-21T06:46:12;8.73;;;4.60;;
6987;SDS011;3534;49.960;8.018;2023-03-21T06:48:39;7.57;;;4.63;;
6987;SDS011;3534;49.960;8.018;2023-03-21T06:51:08;11.60;;;5.20;;
6987;SDS011;3534;49.960;8.018;2023-03-21T06:53:36;10.70;;;5.03;;
6987;SDS011;3534;49.960;8.018;2023-03-21T06:56:03;6.13;;;4.90;;
6987;SDS011;3534;49.960;8.018;2023-03-21T06:58:31;9.70;;;4.30;;
6987;SDS011;3534;49.960;8.018;2023-03-21T07:00:59;9.00;;;5.40;;
6987;SDS011;3534;49.960;8.018;2023-03-21T07:03:26;6.17;;;3.80;;
6987;SDS011;3534;49.960;8.018;2023-03-21T07:05:53;18.70;;;6.27;;
6987;SDS011;3534;49.960;8.018;2023-03-21T07:08:20;11.30;;;5.50;;
6987;SDS011;3534;49.960;8.018;2023-03-21T07:10:47;9.47;;;5.40;;
6987;SDS011;3534;49.960;8.018;2023-03-21T07:13:14;10.47;;;5.43;;
6987;SDS011;3534;49.960;8.018;2023-03-21T07:15:41;8.33;;;4.90;;
6987;SDS011;3534;49.960;8.018;2023-03-21T07:18:09;5.73;;;4.43;;
6987;SDS011;3534;49.960;8.018;2023-03-21T07:20:36;6.33;;;3.97;;
6987;SDS011;3534;49.960;8.018;2023-03-21T07:23:03;9.07;;;3.60;;
6987;SDS011;3534;49.960;8.018;2023-03-21T07:25:29;6.77;;;4.10;;
6987;SDS011;3534;49.960;8.018;2023-03-21T07:27:56;8.30;;;4.03;;
6987;SDS011;3534;49.960;8.018;2023-03-21T07:30:23;7.73;;;3.70;;
6987;SDS011;3534;49.960;8.018;2023-03-21T07:32:50;6.23;;;3.50;;
6987;SDS011;3534;49.960;8.018;2023-03-21T07:35:18;9.73;;;3.97;;
6987;SDS011;3534;49.960;8.018;2023-03-21T07:37:45;10.00;;;5.50;;
6987;SDS011;3534;49.960;8.018;2023-03-21T07:40:12;10.77;;;4.33;;
6987;SDS011;3534;49.960;8.018;2023-03-21T07:42:39;6.33;;;3.57;;
6987;SDS011;3534;49.960;8.018;2023-03-21T07:45:07;18.87;;;4.30;;
6987;SDS011;3534;49.960;8.018;2023-03-21T07:47:35;10.93;;;3.77;;
6987;SDS011;3534;49.960;8.018;2023-03-21T07:50:02;10.63;;;4.00;;
6987;SDS011;3534;49.960;8.018;2023-03-21T07:52:30;9.23;;;4.63;;
6987;SDS011;3534;49.960;8.018;2023-03-21T07:54:58;8.00;;;3.73;;
6987;SDS011;3534;49.960;8.018;2023-03-21T07:57:24;6.03;;;3.60;;
6987;SDS011;3534;49.960;8.018;2023-03-21T07:59:51;8.30;;;3.93;;
6987;SDS011;3534;49.960;8.018;2023-03-21T08:02:17;9.63;;;5.10;;
6987;SDS011;3534;49.960;8.018;2023-03-21T08:04:44;11.50;;;4.70;;
6987;SDS011;3534;49.960;8.018;2023-03-21T08:07:11;13.77;;;5.30;;
6987;SDS011;3534;49.960;8.018;2023-03-21T08:09:39;7.30;;;4.30;;
6987;SDS011;3534;49.960;8.018;2023-03-21T08:12:07;6.53;;;3.90;;
6987;SDS011;3534;49.960;8.018;2023-03-21T08:14:34;10.53;;;4.60;;
6987;SDS011;3534;49.960;8.018;2023-03-21T08:17:01;6.13;;;3.80;;
6987;SDS011;3534;49.960;8.018;2023-03-21T08:19:28;10.00;;;4.03;;
6987;SDS011;3534;49.960;8.018;2023-03-21T08:21:55;8.73;;;4.10;;
6987;SDS011;3534;49.960;8.018;2023-03-21T08:24:23;9.80;;;4.30;;
6987;SDS011;3534;49.960;8.018;2023-03-21T08:26:51;10.60;;;4.23;;
6987;SDS011;3534;49.960;8.018;2023-03-21T08:29:18;8.97;;;4.30;;
6987;SDS011;3534;49.960;8.018;2023-03-21T08:31:45;7.97;;;4.40;;
6987;SDS011;3534;49.960;8.018;2023-03-21T08:34:12;9.50;;;4.50;;
6987;SDS011;3534;49.960;8.018;2023-03-21T08:36:39;8.17;;;3.97;;
6987;SDS011;3534;49.960;8.018;2023-03-21T08:39:06;4.53;;;3.30;;
6987;SDS011;3534;49.960;8.018;2023-03-21T08:41:33;9.10;;;3.77;;
6987;SDS011;3534;49.960;8.018;2023-03-21T08:44:02;12.43;;;4.43;;
6987;SDS011;3534;49.960;8.018;2023-03-21T08:46:30;7.60;;;3.97;;
6987;SDS011;3534;49.960;8.018;2023-03-21T08:48:58;8.20;;;4.80;;
6987;SDS011;3534;49.960;8.018;2023-03-21T08:51:25;8.83;;;4.00;;
6987;SDS011;3534;49.960;8.018;2023-03-21T08:53:52;9.43;;;3.30;;
6987;SDS011;3534;49.960;8.018;2023-03-21T08:56:18;12.83;;;3.40;;
6987;SDS011;3534;49.960;8.018;2023-03-21T08:58:45;7.40;;;3.67;;
6987;SDS011;3534;49.960;8.018;2023-03-21T09:01:16;11.30;;;4.00;;
6987;SDS011;3534;49.960;8.018;2023-03-21T09:03:42;6.20;;;4.10;;
6987;SDS011;3534;49.960;8.018;2023-03-21T09:06:09;11.43;;;4.07;;
6987;SDS011;3534;49.960;8.018;2023-03-21T09:08:38;5.00;;;3.53;;
6987;SDS011;3534;49.960;8.018;2023-03-21T09:11:06;7.50;;;3.87;;
6987;SDS011;3534;49.960;8.018;2023-03-21T09:13:33;8.13;;;3.97;;
6987;SDS011;3534;49.960;8.018;2023-03-21T09:15:59;7.00;;;3.33;;
6987;SDS011;3534;49.960;8.018;2023-03-21T09:18:28;7.50;;;3.77;;
6987;SDS011;3534;49.960;8.018;2023-03-21T09:21:09;8.60;;;3.93;;
6987;SDS011;3534;49.960;8.018;2023-03-21T09:23:37;10.70;;;4.27;;
6987;SDS011;3534;49.960;8.018;2023-03-21T09:26:04;6.90;;;3.83;;
6987;SDS011;3534;49.960;8.018;2023-03-21T09:28:33;8.17;;;4.17;;
6987;SDS011;3534;49.960;8.018;2023-03-21T09:31:01;5.67;;;3.73;;
6987;SDS011;3534;49.960;8.018;2023-03-21T09:33:29;9.90;;;4.27;;
6987;SDS011;3534;49.960;8.018;2023-03-21T09:35:57;7.93;;;4.50;;
6987;SDS011;3534;49.960;8.018;2023-03-21T09:38:24;8.03;;;4.43;;
6987;SDS011;3534;49.960;8.018;2023-03-21T09:40:56;7.03;;;4.30;;
6987;SDS011;3534;49.960;8.018;2023-03-21T09:43:33;7.70;;;3.80;;
6987;SDS011;3534;49.960;8.018;2023-03-21T09:46:12;8.17;;;4.40;;
6987;SDS011;3534;49.960;8.018;2023-03-21T09:48:53;10.97;;;4.33;;
6987;SDS011;3534;49.960;8.018;2023-03-21T09:51:24;9.07;;;4.60;;
6987;SDS011;3534;49.960;8.018;2023-03-21T09:53:54;8.43;;;3.90;;
6987;SDS011;3534;49.960;8.018;2023-03-21T09:56:22;11.00;;;4.30;;
6987;SDS011;3534;49.960;8.018;2023-03-21T09:58:50;11.17;;;4.03;;
6987;SDS011;3534;49.960;8.018;2023-03-21T10:01:20;16.13;;;5.17;;
6987;SDS011;3534;49.960;8.018;2023-03-21T10:03:55;8.73;;;4.47;;
6987;SDS011;3534;49.960;8.018;2023-03-21T10:06:25;7.53;;;4.23;;
6987;SDS011;3534;49.960;8.018;2023-03-21T10:08:54;10.60;;;3.70;;
6987;SDS011;3534;49.960;8.018;2023-03-21T10:11:25;6.40;;;4.30;;
6987;SDS011;3534;49.960;8.018;2023-03-21T10:13:57;13.80;;;4.90;;
6987;SDS011;3534;49.960;8.018;2023-03-21T10:16:27;8.40;;;4.27;;
6987;SDS011;3534;49.960;8.018;2023-03-21T10:18:58;8.83;;;5.00;;
6987;SDS011;3534;49.960;8.018;2023-03-21T10:21:28;6.67;;;4.10;;
6987;SDS011;3534;49.960;8.018;2023-03-21T10:23:56;7.23;;;4.53;;
6987;SDS011;3534;49.960;8.018;2023-03-21T10:26:25;9.90;;;4.47;;
6987;SDS011;3534;49.960;8.018;2023-03-21T10:28:54;7.80;;;4.37;;
6987;SDS011;3534;49.960;8.018;2023-03-21T10:31:24;14.83;;;4.63;;
6987;SDS011;3534;49.960;8.018;2023-03-21T10:33:55;8.33;;;5.20;;
6987;SDS011;3534;49.960;8.018;2023-03-21T10:36:25;12.70;;;6.40;;
6987;SDS011;3534;49.960;8.018;2023-03-21T10:38:56;10.87;;;6.07;;
6987;SDS011;3534;49.960;8.018;2023-03-21T10:41:28;13.47;;;7.27;;
6987;SDS011;3534;49.960;8.018;2023-03-21T10:44:05;6.90;;;4.70;;
6987;SDS011;3534;49.960;8.018;2023-03-21T10:46:33;11.57;;;5.13;;
6987;SDS011;3534;49.960;8.018;2023-03-21T10:49:00;10.77;;;5.43;;
6987;SDS011;3534;49.960;8.018;2023-03-21T10:51:29;9.17;;;4.73;;
6987;SDS011;3534;49.960;8.018;2023-03-21T10:53:58;9.80;;;5.07;;
6987;SDS011;3534;49.960;8.018;2023-03-21T10:56:30;9.20;;;5.37;;
6987;SDS011;3534;49.960;8.018;2023-03-21T10:59:00;8.57;;;5.23;;
6987;SDS011;3534;49.960;8.018;2023-03-21T11:01:29;10.00;;;4.40;;
6987;SDS011;3534;49.960;8.018;2023-03-21T11:04:00;8.43;;;5.00;;
6987;SDS011;3534;49.960;8.018;2023-03-21T11:06:35;9.30;;;5.30;;
6987;SDS011;3534;49.960;8.018;2023-03-21T11:09:05;12.60;;;5.67;;
6987;SDS011;3534;49.960;8.018;2023-03-21T11:11:37;8.73;;;4.63;;
6987;SDS011;3534;49.960;8.018;2023-03-21T11:14:06;6.17;;;4.80;;
6987;SDS011;3534;49.960;8.018;2023-03-21T11:16:45;11.43;;;5.53;;
6987;SDS011;3534;49.960;8.018;2023-03-21T11:19:13;11.07;;;5.00;;
6987;SDS011;3534;49.960;8.018;2023-03-21T11:21:43;8.10;;;4.67;;
6987;SDS011;3534;49.960;8.018;2023-03-21T11:24:11;6.97;;;4.40;;
6987;SDS011;3534;49.960;8.018;2023-03-21T11:26:41;10.77;;;4.90;;
6987;SDS011;3534;49.960;8.018;2023-03-21T11:29:11;8.57;;;5.60;;
6987;SDS011;3534;49.960;8.018;2023-03-21T11:31:47;11.07;;;5.83;;
6987;SDS011;3534;49.960;8.018;2023-03-21T11:34:22;9.07;;;5.00;;
6987;SDS011;3534;49.960;8.018;2023-03-21T11:36:52;10.00;;;5.23;;
6987;SDS011;3534;49.960;8.018;2023-03-21T11:39:27;7.07;;;4.30;;
6987;SDS011;3534;49.960;8.018;2023-03-21T11:41:56;7.53;;;4.77;;
6987;SDS011;3534;49.960;8.018;2023-03-21T11:44:25;9.73;;;5.20;;
6987;SDS011;3534;49.960;8.018;2023-03-21T11:46:53;7.90;;;5.13;;
6987;SDS011;3534;49.960;8.018;2023-03-21T11:49:21;7.00;;;4.87;;
6987;SDS011;3534;49.960;8.018;2023-03-21T11:51:51;10.13;;;5.53;;
6987;SDS011;3534;49.960;8.018;2023-03-21T11:54:30;8.87;;;4.70;;
6987;SDS011;3534;49.960;8.018;2023-03-21T11:57:04;8.40;;;5.43;;
6987;SDS011;3534;49.960;8.018;2023-03-21T11:59:41;8.60;;;5.23;;
6987;SDS011;3534;49.960;8.018;2023-03-21T12:05:20;9.40;;;5.50;;
6987;SDS011;3534;49.960;8.018;2023-03-21T12:07:53;8.17;;;5.23;;
6987;SDS011;3534;49.960;8.018;2023-03-21T12:10:30;14.93;;;5.60;;
6987;SDS011;3534;49.960;8.018;2023-03-21T12:13:09;12.07;;;5.43;;
6987;SDS011;3534;49.960;8.018;2023-03-21T12:15:47;8.07;;;4.87;;
6987;SDS011;3534;49.960;8.018;2023-03-21T12:18:29;8.90;;;4.90;;
6987;SDS011;3534;49.960;8.018;2023-03-21T12:21:15;10.03;;;5.90;;
6987;SDS011;3534;49.960;8.018;2023-03-21T12:23:53;7.70;;;4.83;;
6987;SDS011;3534;49.960;8.018;2023-03-21T12:26:29;7.57;;;4.40;;
6987;SDS011;3534;49.960;8.018;2023-03-21T12:29:13;8.70;;;4.50;;
6987;SDS011;3534;49.960;8.018;2023-03-21T12:31:54;7.07;;;4.80;;
6987;SDS011;3534;49.960;8.018;2023-03-21T12:34:43;11.83;;;6.47;;
6987;SDS011;3534;49.960;8.018;2023-03-21T12:37:22;18.13;;;6.50;;
6987;SDS011;3534;49.960;8.018;2023-03-21T12:40:01;12.17;;;4.97;;
6987;SDS011;3534;49.960;8.018;2023-03-21T12:42:42;6.10;;;4.30;;
6987;SDS011;3534;49.960;8.018;2023-03-21T12:45:17;8.90;;;4.57;;
6987;SDS011;3534;49.960;8.018;2023-03-21T12:47:47;12.03;;;5.87;;
6987;SDS011;3534;49.960;8.018;2023-03-21T12:50:17;9.20;;;5.70;;
6987;SDS011;3534;49.960;8.018;2023-03-21T12:52:48;9.47;;;5.50;;
6987;SDS011;3534;49.960;8.018;2023-03-21T12:55:20;8.87;;;5.83;;
6987;SDS011;3534;49.960;8.018;2023-03-21T12:57:51;14.57;;;5.40;;
6987;SDS011;3534;49.960;8.018;2023-03-21T13:00:21;11.50;;;5.30;;
6987;SDS011;3534;49.960;8.018;2023-03-21T13:02:52;12.57;;;6.43;;
6987;SDS011;3534;49.960;8.018;2023-03-21T13:05:25;6.83;;;5.03;;
6987;SDS011;3534;49.960;8.018;2023-03-21T13:07:55;11.53;;;5.53;;
6987;SDS011;3534;49.960;8.018;2023-03-21T13:10:27;8.67;;;5.57;;
6987;SDS011;3534;49.960;8.018;2023-03-21T13:13:02;15.93;;;5.80;;
6987;SDS011;3534;49.960;8.018;2023-03-21T13:18:31;10.80;;;5.67;;
6987;SDS011;3534;49.960;8.018;2023-03-21T13:21:04;10.57;;;6.67;;
6987;SDS011;3534;49.960;8.018;2023-03-21T13:23:38;10.00;;;5.50;;
6987;SDS011;3534;49.960;8.018;2023-03-21T13:26:08;7.70;;;5.10;;
6987;SDS011;3534;49.960;8.018;2023-03-21T13:28:37;17.03;;;6.70;;
6987;SDS011;3534;49.960;8.018;2023-03-21T13:31:19;8.03;;;5.30;;
6987;SDS011;3534;49.960;8.018;2023-03-21T13:33:47;6.67;;;5.30;;
6987;SDS011;3534;49.960;8.018;2023-03-21T13:36:15;10.33;;;6.40;;
6987;SDS011;3534;49.960;8.018;2023-03-21T13:38:48;14.10;;;6.10;;
6987;SDS011;3534;49.960;8.018;2023-03-21T13:41:18;8.93;;;6.10;;
6987;SDS011;3534;49.960;8.018;2023-03-21T13:44:04;10.53;;;6.13;;
6987;SDS011;3534;49.960;8.018;2023-03-21T13:46:34;9.27;;;5.70;;
6987;SDS011;3534;49.960;8.018;2023-03-21T13:49:12;11.87;;;6.47;;
6987;SDS011;3534;49.960;8.018;2023-03-21T13:51:41;17.43;;;6.10;;
6987;SDS011;3534;49.960;8.018;2023-03-21T13:54:26;7.23;;;5.83;;
6987;SDS011;3534;49.960;8.018;2023-03-21T13:57:19;14.23;;;6.23;;
6987;SDS011;3534;49.960;8.018;2023-03-21T13:59:48;13.00;;;6.50;;
6987;SDS011;3534;49.960;8.018;2023-03-21T14:04:58;14.27;;;5.93;;
6987;SDS011;3534;49.960;8.018;2023-03-21T14:07:27;14.87;;;6.67;;
6987;SDS011;3534;49.960;8.018;2023-03-21T14:09:58;9.30;;;5.97;;
6987;SDS011;3534;49.960;8.018;2023-03-21T14:12:29;11.47;;;6.07;;
6987;SDS011;3534;49.960;8.018;2023-03-21T14:15:03;14.50;;;6.50;;
6987;SDS011;3534;49.960;8.018;2023-03-21T14:17:32;10.17;;;6.03;;
6987;SDS011;3534;49.960;8.018;2023-03-21T14:20:01;8.93;;;6.17;;
6987;SDS011;3534;49.960;8.018;2023-03-21T14:22:35;10.63;;;6.10;;
6987;SDS011;3534;49.960;8.018;2023-03-21T14:25:05;13.67;;;6.50;;
6987;SDS011;3534;49.960;8.018;2023-03-21T14:27:38;9.23;;;6.60;;
6987;SDS011;3534;49.960;8.018;2023-03-21T14:30:10;15.60;;;8.33;;
6987;SDS011;3534;49.960;8.018;2023-03-21T14:32:44;17.13;;;8.83;;
6987;SDS011;3534;49.960;8.018;2023-03-21T14:35:12;14.77;;;6.77;;
6987;SDS011;3534;49.960;8.018;2023-03-21T14:37:40;17.93;;;6.90;;
6987;SDS011;3534;49.960;8.018;2023-03-21T14:40:16;11.33;;;6.20;;
6987;SDS011;3534;49.960;8.018;2023-03-21T14:42:47;18.27;;;9.87;;
6987;SDS011;3534;49.960;8.018;2023-03-21T14:45:16;32.40;;;18.97;;
6987;SDS011;3534;49.960;8.018;2023-03-21T14:47:53;25.00;;;15.00;;
6987;SDS011;3534;49.960;8.018;2023-03-21T14:50:21;14.07;;;7.70;;
6987;SDS011;3534;49.960;8.018;2023-03-21T14:52:53;10.63;;;6.93;;
6987;SDS011;3534;49.960;8.018;2023-03-21T14:55:22;14.43;;;6.77;;
6987;SDS011;3534;49.960;8.018;2023-03-21T14:57:50;11.77;;;6.70;;
6987;SDS011;3534;49.960;8.018;2023-03-21T15:00:21;13.07;;;6.77;;
6987;SDS011;3534;49.960;8.018;2023-03-21T15:02:50;9.27;;;6.67;;
6987;SDS011;3534;49.960;8.018;2023-03-21T15:05:19;15.20;;;7.73;;
6987;SDS011;3534;49.960;8.018;2023-03-21T15:07:54;14.80;;;7.63;;
6987;SDS011;3534;49.960;8.018;2023-03-21T15:10:23;13.77;;;9.30;;
6987;SDS011;3534;49.960;8.018;2023-03-21T15:12:53;19.40;;;10.70;;
6987;SDS011;3534;49.960;8.018;2023-03-21T15:15:21;54.33;;;34.83;;
6987;SDS011;3534;49.960;8.018;2023-03-21T15:17:50;54.13;;;28.47;;
6987;SDS011;3534;49.960;8.018;2023-03-21T15:20:18;15.37;;;8.53;;
6987;SDS011;3534;49.960;8.018;2023-03-21T15:22:49;13.50;;;7.77;;
6987;SDS011;3534;49.960;8.018;2023-03-21T15:25:20;23.23;;;12.57;;
6987;SDS011;3534;49.960;8.018;2023-03-21T15:27:49;15.17;;;9.37;;
6987;SDS011;3534;49.960;8.018;2023-03-21T15:30:19;25.60;;;15.20;;
6987;SDS011;3534;49.960;8.018;2023-03-21T15:32:48;26.40;;;14.17;;
6987;SDS011;3534;49.960;8.018;2023-03-21T15:35:16;17.57;;;10.63;;
6987;SDS011;3534;49.960;8.018;2023-03-21T15:37:50;13.93;;;10.17;;
6987;SDS011;3534;49.960;8.018;2023-03-21T15:40:19;11.00;;;6.60;;